createdAt,value
2022-08-25T00:00:22.546Z,28.83
2022-08-25T00:02:55.417Z,27.27
2022-08-25T00:05:32.520Z,24.98
2022-08-25T00:08:06.192Z,21.30
2022-08-25T00:10:39.046Z,22.80
2022-08-25T00:13:08.913Z,31.98
2022-08-25T00:15:38.501Z,24.20
2022-08-25T00:18:11.508Z,22.92
2022-08-25T00:20:49.445Z,25.30
2022-08-25T00:23:19.268Z,34.83
2022-08-25T00:25:47.924Z,28.77
2022-08-25T00:28:17.003Z,28.38
2022-08-25T00:30:45.938Z,22.60
2022-08-25T00:33:14.902Z,28.17
2022-08-25T00:35:45.268Z,23.00
2022-08-25T00:38:14.227Z,23.75
2022-08-25T00:40:42.927Z,26.27
2022-08-25T00:43:12.501Z,21.30
2022-08-25T00:45:40.877Z,24.52
2022-08-25T00:48:09.095Z,26.25
2022-08-25T00:50:37.564Z,23.60
2022-08-25T00:53:07.604Z,21.15
2022-08-25T00:55:40.179Z,22.33
2022-08-25T00:58:25.146Z,26.70
2022-08-25T01:00:57.706Z,21.17
2022-08-25T01:03:33.108Z,23.95
2022-08-25T01:06:04.985Z,25.77
2022-08-25T01:08:34.565Z,24.42
2022-08-25T01:11:07.570Z,24.40
2022-08-25T01:13:48.371Z,21.02
2022-08-25T01:16:17.713Z,21.80
2022-08-25T01:18:53.731Z,25.13
2022-08-25T01:21:26.228Z,21.58
2022-08-25T01:23:58.480Z,17.65
2022-08-25T01:26:31.886Z,27.80
2022-08-25T01:29:21.245Z,21.90
2022-08-25T01:31:59.095Z,19.30
2022-08-25T01:34:34.419Z,15.73
2022-08-25T01:37:04.363Z,24.63
2022-08-25T01:39:34.217Z,23.73
2022-08-25T01:42:10.391Z,26.30
2022-08-25T01:44:42.390Z,24.85
2022-08-25T01:47:11.270Z,18.67
2022-08-25T01:49:39.406Z,25.05
2022-08-25T01:52:27.977Z,24.50
2022-08-25T01:54:56.180Z,19.35
2022-08-25T01:57:24.700Z,21.02
2022-08-25T01:59:52.897Z,16.02
2022-08-25T02:02:21.174Z,16.60
2022-08-25T02:04:49.579Z,27.83
2022-08-25T02:07:19.424Z,24.83
2022-08-25T02:09:48.088Z,21.63
2022-08-25T02:12:16.507Z,20.85
2022-08-25T02:14:44.597Z,15.45
2022-08-25T02:17:13.053Z,15.50
2022-08-25T02:19:41.191Z,27.75
2022-08-25T02:22:11.927Z,14.50
2022-08-25T02:24:40.483Z,21.77
2022-08-25T02:27:10.315Z,14.43
2022-08-25T02:29:38.322Z,17.30
2022-08-25T02:32:07.214Z,20.58
2022-08-25T02:34:35.728Z,19.17
2022-08-25T02:37:03.850Z,19.13
2022-08-25T02:39:31.952Z,20.90
2022-08-25T02:42:00.128Z,20.00
2022-08-25T02:44:28.188Z,22.85
2022-08-25T02:46:56.685Z,20.48
2022-08-25T02:49:25.130Z,16.60
2022-08-25T02:51:54.964Z,20.20
2022-08-25T02:54:23.499Z,18.35
2022-08-25T02:56:51.733Z,23.65
2022-08-25T02:59:20.093Z,13.38
2022-08-25T03:01:48.860Z,16.48
2022-08-25T03:04:17.768Z,12.48
2022-08-25T03:06:46.902Z,17.67
2022-08-25T03:09:16.829Z,16.83
2022-08-25T03:11:47.132Z,9.17
2022-08-25T03:14:15.763Z,17.55
2022-08-25T03:16:46.265Z,16.00
2022-08-25T03:19:15.056Z,15.20
2022-08-25T03:21:43.172Z,16.10
2022-08-25T03:24:11.487Z,14.18
2022-08-25T03:26:56.031Z,18.10
2022-08-25T03:29:28.349Z,14.80
2022-08-25T03:34:30.239Z,15.65
2022-08-25T03:36:59.307Z,17.23
2022-08-25T03:39:29.177Z,21.08
2022-08-25T03:41:57.438Z,14.13
2022-08-25T03:44:25.628Z,17.60
2022-08-25T03:46:53.749Z,15.85
2022-08-25T03:49:24.684Z,12.18
2022-08-25T03:51:55.185Z,21.38
2022-08-25T03:54:26.228Z,15.83
2022-08-25T03:56:55.048Z,11.43
2022-08-25T03:59:23.236Z,11.60
2022-08-25T04:01:55.080Z,21.10
2022-08-25T04:04:24.237Z,17.05
2022-08-25T04:06:53.353Z,16.35
2022-08-25T04:09:21.417Z,11.48
2022-08-25T04:11:53.150Z,15.48
2022-08-25T04:14:23.828Z,16.35
2022-08-25T04:16:53.295Z,16.27
2022-08-25T04:19:22.155Z,15.07
2022-08-25T04:21:50.371Z,18.10
2022-08-25T04:24:19.783Z,15.73
2022-08-25T04:26:51.578Z,13.88
2022-08-25T04:29:23.701Z,17.70
2022-08-25T04:31:54.710Z,15.57
2022-08-25T04:34:30.480Z,25.85
2022-08-25T04:37:03.446Z,23.75
2022-08-25T04:39:32.264Z,19.45
2022-08-25T04:42:01.096Z,13.63
2022-08-25T04:44:30.816Z,18.67
2022-08-25T04:47:00.454Z,18.73
2022-08-25T04:49:28.918Z,17.25
2022-08-25T04:51:57.756Z,13.70
2022-08-25T04:54:26.016Z,13.68
2022-08-25T04:56:58.741Z,13.52
2022-08-25T04:59:29.997Z,21.05
2022-08-25T05:02:03.323Z,17.17
2022-08-25T05:04:34.330Z,16.33
2022-08-25T05:07:03.101Z,22.27
2022-08-25T05:09:32.513Z,12.73
2022-08-25T05:12:05.425Z,15.85
2022-08-25T05:14:35.140Z,16.38
2022-08-25T05:17:03.497Z,18.73
2022-08-25T05:19:31.812Z,15.68
2022-08-25T05:22:00.108Z,16.48
2022-08-25T05:24:28.305Z,19.83
2022-08-25T05:26:57.451Z,21.70
2022-08-25T05:29:27.280Z,17.95
2022-08-25T05:31:55.480Z,16.85
2022-08-25T05:34:24.981Z,19.40
2022-08-25T05:36:53.173Z,17.98
2022-08-25T05:39:21.272Z,14.20
2022-08-25T05:41:49.549Z,16.33
2022-08-25T05:44:20.824Z,17.00
2022-08-25T05:46:50.072Z,16.73
2022-08-25T05:49:18.322Z,16.95
2022-08-25T05:51:46.653Z,19.35
2022-08-25T05:54:14.931Z,17.55
2022-08-25T05:56:43.113Z,15.32
2022-08-25T05:59:11.260Z,14.07
2022-08-25T06:01:58.282Z,18.70
2022-08-25T06:04:26.489Z,14.93
2022-08-25T06:06:55.751Z,11.80
2022-08-25T06:09:24.537Z,14.48
2022-08-25T06:11:55.139Z,18.92
2022-08-25T06:14:25.406Z,20.95
2022-08-25T06:16:55.409Z,13.03
2022-08-25T06:19:24.883Z,16.47
2022-08-25T06:21:58.676Z,24.63
2022-08-25T06:24:28.709Z,14.52
2022-08-25T06:26:57.835Z,17.95
2022-08-25T06:29:27.170Z,19.15
2022-08-25T06:31:55.441Z,14.27
2022-08-25T06:50:38.549Z,17.80
2022-08-25T06:53:07.453Z,15.77
2022-08-25T06:55:36.291Z,12.95
2022-08-25T06:58:05.855Z,16.73
2022-08-25T07:00:38.977Z,12.63
2022-08-25T07:03:07.197Z,12.40
2022-08-25T07:05:43.414Z,12.38
2022-08-25T07:08:12.134Z,15.38
2022-08-25T07:10:40.654Z,15.40
2022-08-25T07:13:08.628Z,12.35
2022-08-25T07:15:44.386Z,13.18
2022-08-25T07:18:13.334Z,12.43
2022-08-25T07:20:41.710Z,12.02
2022-08-25T07:23:09.985Z,12.45
2022-08-25T07:25:38.681Z,18.00
2022-08-25T07:28:06.956Z,17.67
2022-08-25T07:30:37.567Z,16.92
2022-08-25T07:33:06.785Z,13.70
2022-08-25T07:35:39.078Z,17.80
2022-08-25T07:38:13.016Z,12.27
2022-08-25T07:40:43.952Z,13.00
2022-08-25T07:43:13.998Z,15.23
2022-08-25T07:45:49.379Z,11.45
2022-08-25T07:48:20.198Z,11.57
2022-08-25T07:50:49.569Z,14.52
2022-08-25T07:53:18.267Z,15.27
2022-08-25T07:55:47.383Z,13.55
2022-08-25T07:58:16.039Z,11.95
2022-08-25T08:00:48.860Z,11.23
2022-08-25T08:03:42.245Z,15.10
2022-08-25T08:06:14.315Z,11.20
2022-08-25T08:08:45.865Z,14.93
2022-08-25T08:11:18.040Z,11.85
2022-08-25T08:13:48.550Z,13.77
2022-08-25T08:16:20.583Z,15.00
2022-08-25T08:18:48.997Z,14.23
2022-08-25T08:21:26.849Z,10.02
2022-08-25T08:23:59.085Z,11.82
2022-08-25T08:26:48.343Z,13.50
2022-08-25T08:29:16.950Z,10.45
2022-08-25T08:31:48.476Z,9.85
2022-08-25T08:34:17.405Z,18.48
2022-08-25T08:36:45.584Z,12.25
2022-08-25T08:39:13.975Z,11.15
2022-08-25T08:42:22.563Z,15.32
2022-08-25T08:45:43.821Z,7.13
2022-08-25T08:48:52.179Z,10.10
2022-08-25T08:51:25.513Z,11.20
2022-08-25T08:54:18.897Z,10.05
2022-08-25T08:57:08.237Z,13.35
2022-08-25T09:00:00.870Z,13.27
2022-08-25T09:02:52.079Z,8.98
2022-08-25T09:05:26.719Z,9.57
2022-08-25T09:08:03.502Z,8.07
2022-08-25T09:10:47.096Z,9.68
2022-08-25T09:13:51.262Z,18.65
2022-08-25T09:16:58.018Z,10.50
2022-08-25T09:20:23.793Z,14.32
2022-08-25T09:23:13.223Z,10.32
2022-08-25T09:26:27.586Z,9.98
2022-08-25T09:29:19.883Z,11.43
2022-08-25T09:31:49.682Z,15.55
2022-08-25T09:34:24.884Z,7.15
2022-08-25T09:36:53.622Z,6.85
2022-08-25T09:39:22.245Z,8.07
2022-08-25T09:42:00.545Z,8.60
2022-08-25T09:44:44.192Z,13.73
2022-08-25T09:47:18.404Z,7.78
2022-08-25T09:49:49.543Z,7.85
2022-08-25T09:52:29.199Z,6.40
2022-08-25T09:55:30.025Z,11.63
2022-08-25T09:58:11.652Z,7.90
2022-08-25T10:01:01.545Z,9.27
2022-08-25T10:03:30.352Z,9.60
2022-08-25T10:06:13.682Z,6.72
2022-08-25T10:08:58.989Z,6.40
2022-08-25T10:11:38.322Z,7.78
2022-08-25T10:14:35.260Z,8.05
2022-08-25T10:17:27.602Z,11.75
2022-08-25T10:20:35.179Z,15.50
2022-08-25T10:23:13.857Z,14.38
2022-08-25T10:25:59.404Z,5.97
2022-08-25T10:28:49.613Z,7.70
2022-08-25T10:31:24.895Z,7.10
2022-08-25T10:34:36.056Z,10.13
2022-08-25T10:37:18.277Z,7.72
2022-08-25T10:39:59.551Z,10.55
2022-08-25T10:43:17.150Z,6.15
2022-08-25T10:46:08.722Z,7.40
2022-08-25T10:48:52.788Z,5.45
2022-08-25T10:51:54.285Z,14.32
2022-08-25T10:54:46.970Z,13.98
2022-08-25T10:58:14.761Z,8.27
2022-08-25T11:01:28.871Z,6.35
2022-08-25T11:04:50.578Z,8.07
2022-08-25T11:07:46.345Z,7.43
2022-08-25T11:11:09.333Z,10.00
2022-08-25T11:14:01.615Z,5.13
2022-08-25T11:16:43.707Z,7.95
2022-08-25T11:19:35.271Z,5.82
2022-08-25T11:22:24.313Z,7.18
2022-08-25T11:25:18.922Z,7.80
2022-08-25T11:28:29.843Z,8.57
2022-08-25T11:31:02.135Z,10.65
2022-08-25T11:33:31.855Z,14.88
2022-08-25T11:36:23.697Z,11.23
2022-08-25T11:39:23.178Z,9.55
2022-08-25T11:42:01.666Z,11.73
2022-08-25T11:45:12.130Z,8.45
2022-08-25T11:48:28.397Z,13.48
2022-08-25T11:51:07.574Z,7.30
2022-08-25T11:53:44.472Z,13.25
2022-08-25T11:56:33.314Z,3.28
2022-08-25T11:59:04.580Z,9.23
2022-08-25T12:01:55.314Z,3.35
2022-08-25T12:04:44.983Z,7.72
2022-08-25T12:07:22.030Z,7.93
2022-08-25T12:09:55.975Z,5.57
2022-08-25T12:12:32.459Z,6.55
2022-08-25T12:15:30.243Z,7.40
2022-08-25T12:18:45.816Z,10.45
2022-08-25T12:21:28.918Z,7.82
2022-08-25T12:24:13.227Z,5.57
2022-08-25T12:26:58.578Z,6.40
2022-08-25T12:29:29.525Z,8.02
2022-08-25T12:32:04.544Z,3.67
2022-08-25T12:35:11.456Z,9.32
2022-08-25T12:38:04.925Z,5.78
2022-08-25T12:40:48.141Z,5.63
2022-08-25T12:43:40.435Z,9.05
2022-08-25T12:46:30.711Z,8.32
2022-08-25T12:49:33.441Z,10.05
2022-08-25T12:52:28.071Z,6.80
2022-08-25T12:55:03.854Z,7.35
2022-08-25T12:57:58.063Z,5.97
2022-08-25T13:00:36.634Z,6.72
2022-08-25T13:04:11.611Z,10.23
2022-08-25T13:07:05.233Z,14.77
2022-08-25T13:10:11.350Z,7.47
2022-08-25T13:13:13.455Z,9.20
2022-08-25T13:15:57.485Z,9.77
2022-08-25T13:18:30.834Z,7.05
2022-08-25T13:21:24.804Z,5.22
2022-08-25T13:24:01.386Z,10.52
2022-08-25T13:26:48.385Z,7.18
2022-08-25T13:29:24.793Z,11.32
2022-08-25T13:32:01.580Z,12.90
2022-08-25T13:34:39.011Z,9.80
2022-08-25T13:37:30.565Z,5.55
2022-08-25T13:40:24.553Z,6.07
2022-08-25T13:43:01.206Z,16.05
2022-08-25T13:45:45.038Z,10.70
2022-08-25T13:48:31.418Z,9.88
2022-08-25T13:51:31.254Z,8.27
2022-08-25T13:54:09.867Z,10.30
2022-08-25T13:56:42.742Z,10.05
2022-08-25T13:59:31.216Z,6.78
2022-08-25T14:02:00.217Z,13.77
2022-08-25T14:04:53.896Z,12.23
2022-08-25T14:07:25.991Z,8.35
2022-08-25T14:10:43.047Z,11.63
2022-08-25T14:13:34.997Z,12.20
2022-08-25T14:16:25.470Z,12.38
2022-08-25T14:18:59.436Z,10.23
2022-08-25T14:21:31.623Z,9.38
2022-08-25T14:24:01.055Z,8.32
2022-08-25T14:26:29.207Z,7.68
2022-08-25T14:28:59.666Z,12.82
2022-08-25T14:31:36.305Z,7.60
2022-08-25T14:34:10.174Z,10.90
2022-08-25T14:36:43.036Z,8.20
2022-08-25T14:39:13.743Z,7.97
2022-08-25T14:41:45.332Z,8.63
2022-08-25T14:44:22.655Z,12.05
2022-08-25T14:46:55.378Z,14.93
2022-08-25T14:49:34.030Z,8.85
2022-08-25T14:52:16.668Z,9.55
2022-08-25T14:54:45.259Z,14.30
2022-08-25T14:57:14.508Z,6.95
2022-08-25T14:59:43.391Z,7.30
2022-08-25T15:02:19.959Z,10.30
2022-08-25T15:04:57.606Z,14.27
2022-08-25T15:07:45.520Z,8.95
2022-08-25T15:10:13.930Z,13.50
2022-08-25T15:12:47.884Z,11.15
2022-08-25T15:15:16.665Z,7.15
2022-08-25T15:17:47.386Z,8.57
2022-08-25T15:20:19.456Z,10.15
2022-08-25T15:22:48.407Z,8.70
2022-08-25T15:25:17.051Z,12.05
2022-08-25T15:27:46.272Z,18.10
2022-08-25T15:30:15.423Z,7.88
2022-08-25T15:32:44.613Z,12.23
2022-08-25T15:35:17.223Z,18.48
2022-08-25T15:37:48.314Z,12.45
2022-08-25T15:40:16.593Z,10.98
2022-08-25T15:42:46.027Z,10.27
2022-08-25T15:45:14.657Z,14.13
2022-08-25T15:47:42.773Z,9.55
2022-08-25T15:50:16.704Z,8.65
2022-08-25T15:52:47.409Z,7.18
2022-08-25T15:55:17.985Z,8.52
2022-08-25T15:57:49.627Z,13.43
2022-08-25T16:00:21.552Z,14.77
2022-08-25T16:02:50.095Z,7.18
2022-08-25T16:05:22.497Z,16.52
2022-08-25T16:07:54.445Z,11.38
2022-08-25T16:10:22.712Z,7.20
2022-08-25T16:12:51.768Z,11.93
2022-08-25T16:15:23.947Z,10.60
2022-08-25T16:17:58.961Z,16.45
2022-08-25T16:20:33.491Z,13.57
2022-08-25T16:23:03.114Z,9.32
2022-08-25T16:25:32.524Z,9.57
2022-08-25T16:28:01.923Z,10.80
2022-08-25T16:30:31.595Z,7.20
2022-08-25T16:33:02.584Z,13.00
2022-08-25T16:37:58.905Z,11.52
2022-08-25T16:40:30.196Z,15.10
2022-08-25T16:42:59.446Z,10.48
2022-08-25T16:45:28.553Z,14.30
2022-08-25T16:47:59.093Z,13.30
2022-08-25T16:50:27.641Z,15.88
2022-08-25T16:53:15.584Z,8.88
2022-08-25T16:55:44.757Z,8.15
2022-08-25T16:58:16.135Z,24.88
2022-08-25T17:00:44.962Z,14.25
2022-08-25T17:03:13.742Z,9.88
2022-08-25T17:05:43.272Z,4.97
2022-08-25T17:08:30.699Z,11.45
2022-08-25T17:11:19.250Z,13.30
2022-08-25T17:13:52.287Z,9.00
2022-08-25T17:16:26.408Z,7.95
2022-08-25T17:18:55.817Z,10.93
2022-08-25T17:21:27.049Z,11.20
2022-08-25T17:23:58.129Z,11.85
2022-08-25T17:29:01.772Z,7.83
2022-08-25T17:31:30.844Z,13.95
2022-08-25T17:33:59.551Z,11.70
2022-08-25T17:36:28.343Z,7.70
2022-08-25T17:39:00.381Z,9.23
2022-08-25T17:41:30.917Z,13.80
2022-08-25T17:43:59.663Z,9.07
2022-08-25T17:46:29.363Z,13.93
2022-08-25T17:48:57.634Z,8.20
2022-08-25T17:51:31.550Z,18.50
2022-08-25T17:54:00.556Z,9.95
2022-08-25T17:56:29.212Z,11.25
2022-08-25T17:58:58.220Z,15.88
2022-08-25T18:01:40.132Z,7.80
2022-08-25T18:04:17.882Z,20.92
2022-08-25T18:06:56.565Z,11.57
2022-08-25T18:09:25.465Z,9.50
2022-08-25T18:11:54.084Z,12.18
2022-08-25T18:14:25.417Z,12.55
2022-08-25T18:16:54.674Z,13.43
2022-08-25T18:19:23.359Z,10.20
2022-08-25T18:21:52.386Z,9.57
2022-08-25T18:24:21.285Z,19.08
2022-08-25T18:26:51.958Z,10.10
2022-08-25T18:29:21.203Z,16.52
2022-08-25T18:31:51.884Z,10.27
2022-08-25T18:36:51.477Z,10.82
2022-08-25T18:39:39.696Z,9.23
2022-08-25T18:42:09.032Z,11.55
2022-08-25T18:44:37.446Z,9.50
2022-08-25T18:47:07.510Z,9.13
2022-08-25T18:49:37.742Z,11.03
2022-08-25T18:52:06.364Z,17.55
2022-08-25T18:54:36.153Z,23.88
2022-08-25T18:57:08.164Z,19.15
2022-08-25T18:59:37.597Z,21.10
2022-08-25T19:02:07.915Z,13.82
2022-08-25T19:04:37.831Z,10.32
2022-08-25T19:07:07.940Z,12.13
2022-08-25T19:09:37.240Z,11.13
2022-08-25T19:12:06.097Z,12.52
2022-08-25T19:14:40.995Z,9.38
2022-08-25T19:17:10.049Z,12.20
2022-08-25T19:19:38.903Z,24.98
2022-08-25T19:22:26.601Z,12.85
2022-08-25T19:24:58.404Z,17.52
2022-08-25T19:27:28.797Z,12.02
2022-08-25T19:29:59.770Z,15.70
2022-08-25T19:32:30.391Z,16.13
2022-08-25T19:34:59.173Z,18.50
2022-08-25T19:37:29.786Z,11.95
2022-08-25T19:39:59.493Z,15.02
2022-08-25T19:42:35.245Z,19.27
2022-08-25T19:45:10.701Z,19.88
2022-08-25T19:47:42.118Z,15.05
2022-08-25T19:50:16.623Z,10.80
2022-08-25T19:52:47.014Z,15.07
2022-08-25T19:55:20.079Z,18.15
2022-08-25T19:57:49.030Z,15.57
2022-08-25T20:00:25.976Z,15.48
2022-08-25T20:02:56.568Z,19.52
2022-08-25T20:05:25.595Z,20.38
2022-08-25T20:07:56.923Z,20.15
2022-08-25T20:10:29.983Z,21.33
2022-08-25T20:12:59.635Z,17.00
2022-08-25T20:15:29.120Z,18.65
2022-08-25T20:18:08.199Z,16.85
2022-08-25T20:20:37.372Z,15.45
2022-08-25T20:23:27.962Z,19.00
2022-08-25T20:25:57.156Z,14.90
2022-08-25T20:28:26.294Z,15.35
2022-08-25T20:30:57.176Z,17.92
2022-08-25T20:33:25.574Z,16.10
2022-08-25T20:35:54.662Z,18.75
2022-08-25T20:38:24.594Z,19.00
2022-08-25T20:40:53.125Z,12.57
2022-08-25T20:43:21.747Z,18.73
2022-08-25T20:45:59.988Z,12.93
2022-08-25T20:48:29.517Z,17.70
2022-08-25T20:50:58.260Z,14.93
2022-08-25T20:53:27.611Z,14.43
2022-08-25T20:55:56.173Z,16.48
2022-08-25T20:58:25.017Z,16.17
2022-08-25T21:00:55.467Z,20.50
2022-08-25T21:03:24.439Z,15.70
2022-08-25T21:05:54.045Z,12.55
2022-08-25T21:08:23.637Z,18.92
2022-08-25T21:10:52.170Z,18.33
2022-08-25T21:13:20.325Z,14.48
2022-08-25T21:15:51.111Z,16.83
2022-08-25T21:18:19.288Z,11.52
2022-08-25T21:20:47.617Z,19.98
2022-08-25T21:23:16.564Z,20.58
2022-08-25T21:25:45.424Z,19.10
2022-08-25T21:28:15.196Z,16.42
2022-08-25T21:30:47.132Z,20.48
2022-08-25T21:33:15.829Z,19.38
2022-08-25T21:35:44.296Z,18.08
2022-08-25T21:38:15.992Z,17.95
2022-08-25T21:40:45.050Z,28.15
2022-08-25T21:43:13.701Z,19.05
2022-08-25T21:45:46.595Z,21.27
2022-08-25T21:48:17.169Z,22.25
2022-08-25T21:50:46.656Z,20.47
2022-08-25T21:53:15.264Z,28.48
2022-08-25T21:55:44.740Z,19.60
2022-08-25T21:58:15.318Z,18.48
2022-08-25T22:00:45.335Z,20.98
2022-08-25T22:03:13.827Z,19.77
2022-08-25T22:05:43.286Z,21.17
2022-08-25T22:08:14.249Z,20.52
2022-08-25T22:10:45.703Z,22.63
2022-08-25T22:13:13.742Z,24.05
2022-08-25T22:15:41.922Z,25.02
2022-08-25T22:18:10.154Z,14.20
2022-08-25T22:20:39.230Z,27.50
2022-08-25T22:23:10.265Z,20.98
2022-08-25T22:25:48.735Z,15.23
2022-08-25T22:28:17.196Z,21.02
2022-08-25T22:30:45.322Z,14.73
2022-08-25T22:33:13.519Z,16.67
2022-08-25T22:35:42.136Z,13.65
2022-08-25T22:38:12.402Z,13.50
2022-08-25T22:40:41.578Z,13.13
2022-08-25T22:43:10.942Z,16.58
2022-08-25T22:45:39.289Z,15.15
2022-08-25T22:48:08.248Z,11.27
2022-08-25T22:50:37.673Z,12.10
2022-08-25T22:53:05.832Z,17.55
2022-08-25T22:55:34.228Z,13.55
2022-08-25T22:58:02.410Z,15.77
2022-08-25T23:00:31.713Z,10.38
2022-08-25T23:02:59.812Z,15.07
2022-08-25T23:05:28.010Z,15.93
2022-08-25T23:07:56.095Z,16.70
2022-08-25T23:10:25.945Z,19.05
2022-08-25T23:12:54.340Z,16.55
2022-08-25T23:15:22.697Z,16.77
2022-08-25T23:17:51.634Z,11.30
2022-08-25T23:20:44.741Z,10.73
2022-08-25T23:23:14.326Z,17.30
2022-08-25T23:25:42.663Z,11.25
2022-08-25T23:28:10.776Z,12.00
2022-08-25T23:30:42.749Z,17.08
2022-08-25T23:33:18.870Z,10.15
2022-08-25T23:35:57.172Z,12.30
2022-08-25T23:38:26.160Z,14.18
2022-08-25T23:40:57.762Z,15.40
2022-08-25T23:43:26.555Z,14.20
2022-08-25T23:45:55.648Z,12.27
2022-08-25T23:48:25.273Z,19.10
2022-08-25T23:50:53.985Z,16.60
2022-08-25T23:53:22.784Z,13.15
2022-08-25T23:55:53.981Z,13.70
2022-08-25T23:58:23.664Z,10.27
